Huvudsida
METAR-TAF:

METAR-TAF

Flygplatser :

Mohamed Boudiaf International Airport

Constantine, Algeriet

latitud: 36-17N, longitud: 006-37E, höjd: 694 m

Aktuellt väderrapport

Denna rapport gjordes för 23 minuter sedan, klockan 14:30 UTC
Vind 13 kt från nord/nordost
Temperatur 39°C
Fuktighet 14%
Tryck 1020 hPa
Sikt 10 km eller mer
Få moln på en höjd av 3000 ft

METAR: DABC 261430Z 02013KT 9999 FEW030 39/07 Q1020

Tid: 15:53 (14:53 UTC)

Väderprognos

Denna rapport gjordes för 3 timmar och 53 minuter sedan, klockan 11:00 UTC
Prognos gäller från 26 kl. 12 UTC till 27 kl. 12 UTC
Vind 10 kt från nord/nordost
Sikt 10 km eller mer
Inga moln under 1 500 m eller inga cumulonimbus
Blir
från 26 kl. 18 UTC till 26 kl. 20 UTC
Vind 6 kt från ost/sydost
Blir
från 27 kl. 10 UTC till 27 kl. 12 UTC
Vind 12 kt från ost/nordost

TAF: DABC 261100Z 2612/2712 02010KT CAVOK BECMG 2618/2620 12006KT BECMG 2710/2712 06012KT

Aktuella väderrapporter och prognoser från 4000 flygplatser (METAR- och TAF-rapporter).

De tillgängliga stationerna syns som gula och röda prickar på kartan.

För musen över prickarna för att se namnen på stationerna.

Klicka sedan för att få väderrapporter och prognoser.

För att ändra kartan: Klicka på de gröna knapparna med ett svart kors på för att zooma in; den gröna knappen med ett streck på för att zooma ut; eller på de gröna pilarna för angränsande kartor.


METAR-TAF: